Hunters Point, Arizona
Current Conditions -  °F | °C
As of 7:53 AM on Friday 31 Oct 2014 (Local Time) from KRQE Reporting Station
Clear Clear  
Wind Chill: 34°   Ceiling: Unl
Heat Index: 34°   Visibility: 10mi
Dew Point: 15°   Wind: 0mph
Humidity: 46%   Direction: NA
Pressure: 30.31"   Gusts: NA
Location:  35.6556°N, 109.102°W
Report Text: KRQE 311353Z AUTO 00000KT 10SM CLR 01/M09 A3031 RMK AO2 SLP216 T00111094 TSNO
Loading
Personal Weather Stations






























Interactive Weather Map
Tropical Storm Tracking
New forecast layout! Learn more

10-Day Weather Forecast

Advertisements
Track Severe Weather on mobile